createdAt,value
2023-01-29T00:01:21.508Z,100934.99
2023-01-29T00:01:56.345Z,100933.30
2023-01-29T00:02:31.922Z,100931.80
2023-01-29T00:03:05.734Z,100934.47
2023-01-29T00:03:39.034Z,100927.20
2023-01-29T00:04:49.899Z,100926.60
2023-01-29T00:07:17.640Z,100919.95
2023-01-29T00:07:50.573Z,100918.21
2023-01-29T00:09:01.160Z,100914.77
2023-01-29T00:09:34.058Z,100912.70
2023-01-29T00:10:07.290Z,100912.00
2023-01-29T00:10:40.191Z,100912.38
2023-01-29T00:12:29.208Z,100908.59
2023-01-29T00:13:39.822Z,100915.00
2023-01-29T00:14:45.479Z,100907.73
2023-01-29T00:15:18.670Z,100909.33
2023-01-29T00:15:58.105Z,100905.17
2023-01-29T00:16:30.985Z,100901.36
2023-01-29T00:17:41.654Z,100896.50
2023-01-29T00:18:14.568Z,100895.83
2023-01-29T00:18:47.393Z,100893.45
2023-01-29T00:19:58.039Z,100892.86
2023-01-29T00:20:31.381Z,100886.30
2023-01-29T00:22:19.830Z,100886.72
2023-01-29T00:23:30.452Z,100887.09
2023-01-29T00:24:41.207Z,100886.69
2023-01-29T00:27:07.591Z,100886.63
2023-01-29T00:27:40.457Z,100888.19
2023-01-29T00:29:28.850Z,100887.13
2023-01-29T00:30:13.134Z,100893.75
2023-01-29T00:30:46.160Z,100891.48
2023-01-29T00:31:21.093Z,100888.19
2023-01-29T00:31:54.115Z,100892.20
2023-01-29T00:32:27.023Z,100885.95
2023-01-29T00:33:37.659Z,100893.27
2023-01-29T00:34:10.514Z,100898.80
2023-01-29T00:35:21.072Z,100896.03
2023-01-29T00:37:47.093Z,100894.25
2023-01-29T00:38:58.955Z,100896.05
2023-01-29T00:39:47.489Z,100896.61
2023-01-29T00:41:17.302Z,100895.44
2023-01-29T00:42:08.671Z,100902.16
2023-01-29T00:43:00.150Z,100893.95
2023-01-29T00:43:51.419Z,100895.46
2023-01-29T00:44:42.888Z,100897.52
2023-01-29T00:46:31.374Z,100895.04
2023-01-29T00:48:59.530Z,100900.23
2023-01-29T00:50:49.615Z,100897.95
2023-01-29T00:52:18.836Z,100898.29
2023-01-29T00:53:30.772Z,100900.47
2023-01-29T00:55:57.748Z,100898.45
2023-01-29T00:57:08.453Z,100904.25
2023-01-29T00:57:41.342Z,100903.40
2023-01-29T00:58:51.960Z,100898.92
2023-01-29T01:01:42.877Z,100894.52
2023-01-29T01:02:34.097Z,100896.21
2023-01-29T01:03:07.176Z,100889.57
2023-01-29T01:03:42.471Z,100891.09
2023-01-29T01:04:15.481Z,100890.40
2023-01-29T01:06:06.027Z,100891.81
2023-01-29T01:06:39.777Z,100890.95
2023-01-29T01:07:48.967Z,100895.45
2023-01-29T01:08:40.271Z,100896.33
2023-01-29T01:09:31.794Z,100897.14
2023-01-29T01:11:43.326Z,100898.39
2023-01-29T01:13:34.334Z,100897.48
2023-01-29T01:14:45.391Z,100897.22
2023-01-29T01:15:18.759Z,100897.42
2023-01-29T01:15:53.396Z,100897.63
2023-01-29T01:17:42.775Z,100901.11
2023-01-29T01:18:16.327Z,100905.95
2023-01-29T01:18:49.269Z,100902.99
2023-01-29T01:19:22.211Z,100903.00
2023-01-29T01:21:08.645Z,100898.86
2023-01-29T01:22:23.252Z,100891.96
2023-01-29T01:23:34.490Z,100893.72
2023-01-29T01:26:01.996Z,100894.95
2023-01-29T01:27:13.315Z,100895.12
2023-01-29T01:28:24.186Z,100898.60
2023-01-29T01:28:59.874Z,100893.05
2023-01-29T01:29:32.938Z,100893.08
2023-01-29T01:30:06.435Z,100893.79
2023-01-29T01:30:39.365Z,100892.11
2023-01-29T01:31:52.954Z,100890.13
2023-01-29T01:32:26.242Z,100891.22
2023-01-29T01:32:59.474Z,100889.48
2023-01-29T01:33:32.417Z,100888.83
2023-01-29T01:34:45.378Z,100883.66
2023-01-29T01:35:18.418Z,100880.87
2023-01-29T01:35:51.338Z,100876.88
2023-01-29T01:37:40.008Z,100873.36
2023-01-29T01:38:50.707Z,100874.06
2023-01-29T01:40:03.354Z,100876.16
2023-01-29T01:40:36.471Z,100877.04
2023-01-29T01:41:09.327Z,100876.53
2023-01-29T01:43:57.815Z,100873.24
2023-01-29T01:45:14.828Z,100869.06
2023-01-29T01:45:48.607Z,100877.98
2023-01-29T01:46:22.168Z,100879.16
2023-01-29T01:46:55.044Z,100877.27
2023-01-29T01:47:35.738Z,100873.65
2023-01-29T01:48:38.238Z,100876.80
2023-01-29T01:49:18.564Z,100882.42
2023-01-29T01:50:42.786Z,100874.65
2023-01-29T01:51:16.895Z,100871.22
2023-01-29T01:51:50.717Z,100870.17
2023-01-29T01:53:09.223Z,100870.04
2023-01-29T01:54:28.093Z,100868.06
2023-01-29T01:55:43.160Z,100868.91
2023-01-29T01:56:18.525Z,100871.34
2023-01-29T01:57:33.364Z,100874.75
2023-01-29T02:00:51.357Z,100873.49
2023-01-29T02:01:28.247Z,100868.98
2023-01-29T02:02:20.001Z,100867.77
2023-01-29T02:03:11.605Z,100870.02
2023-01-29T02:04:09.038Z,100870.02
2023-01-29T02:05:03.527Z,100868.77
2023-01-29T02:05:55.193Z,100867.39
2023-01-29T02:06:46.409Z,100865.63
2023-01-29T02:07:37.925Z,100862.86
2023-01-29T02:08:29.251Z,100859.09
2023-01-29T02:09:33.702Z,100857.58
2023-01-29T02:11:26.686Z,100863.02
2023-01-29T02:11:59.629Z,100856.45
2023-01-29T02:12:32.634Z,100848.80
2023-01-29T02:13:06.112Z,100851.58
2023-01-29T02:14:16.903Z,100847.59
2023-01-29T02:14:49.882Z,100851.75
2023-01-29T02:16:38.507Z,100845.15
2023-01-29T02:17:13.513Z,100847.76
2023-01-29T02:17:48.472Z,100847.25
2023-01-29T02:18:59.528Z,100847.63
2023-01-29T02:19:47.431Z,100846.41
2023-01-29T02:20:26.224Z,100845.36
2023-01-29T02:21:04.998Z,100839.10
2023-01-29T02:21:59.828Z,100837.89
2023-01-29T02:22:38.168Z,100839.59
2023-01-29T02:23:48.152Z,100837.66
2023-01-29T02:24:43.951Z,100838.12
2023-01-29T02:26:20.783Z,100829.61
2023-01-29T02:27:11.832Z,100824.95
2023-01-29T02:28:07.474Z,100820.29
2023-01-29T02:28:43.196Z,100818.20
2023-01-29T02:29:27.303Z,100835.53
2023-01-29T02:30:03.919Z,100822.88
2023-01-29T02:30:40.786Z,100823.04
2023-01-29T02:32:39.128Z,100823.45
2023-01-29T02:34:01.789Z,100826.60
2023-01-29T02:35:02.957Z,100824.32
2023-01-29T02:35:42.785Z,100818.89
2023-01-29T02:36:22.805Z,100816.95
2023-01-29T02:37:08.319Z,100819.71
2023-01-29T02:38:07.734Z,100813.11
2023-01-29T02:38:45.894Z,100818.45
2023-01-29T02:39:27.813Z,100814.27
2023-01-29T02:40:33.705Z,100812.23
2023-01-29T02:41:12.952Z,100808.98
2023-01-29T02:41:57.316Z,100807.63
2023-01-29T02:42:40.451Z,100815.79
2023-01-29T02:43:38.641Z,100814.77
2023-01-29T02:44:23.273Z,100821.33
2023-01-29T02:45:17.762Z,100807.95
2023-01-29T02:46:38.134Z,100809.23
2023-01-29T02:47:18.042Z,100810.08
2023-01-29T02:48:01.285Z,100820.27
2023-01-29T02:48:43.308Z,100826.30
2023-01-29T02:49:23.000Z,100820.56
2023-01-29T02:49:57.623Z,100809.79
2023-01-29T02:50:43.581Z,100818.77
2023-01-29T02:51:22.177Z,100806.30
2023-01-29T02:53:16.256Z,100807.92
2023-01-29T02:54:35.208Z,100810.86
2023-01-29T02:55:17.705Z,100805.16
2023-01-29T02:55:53.844Z,100807.91
2023-01-29T02:56:53.327Z,100810.86
2023-01-29T02:57:30.863Z,100810.10
2023-01-29T02:58:49.895Z,100813.52
2023-01-29T03:00:14.127Z,100798.70
2023-01-29T03:00:48.161Z,100798.50
2023-01-29T03:02:05.313Z,100804.52
2023-01-29T03:02:39.477Z,100809.00
2023-01-29T03:04:04.763Z,100809.70
2023-01-29T03:04:42.769Z,100800.02
2023-01-29T03:05:17.895Z,100807.13
2023-01-29T03:06:18.332Z,100798.64
2023-01-29T03:06:57.303Z,100801.95
2023-01-29T03:07:46.031Z,100800.70
2023-01-29T03:09:45.843Z,100788.04
2023-01-29T03:10:21.858Z,100788.55
2023-01-29T03:10:57.253Z,100788.54
2023-01-29T03:11:34.354Z,100794.93
2023-01-29T03:12:28.495Z,100789.03
2023-01-29T03:13:16.751Z,100791.11
2023-01-29T03:13:53.899Z,100782.94
2023-01-29T03:14:52.622Z,100789.67
2023-01-29T03:15:29.733Z,100791.20
2023-01-29T03:16:06.472Z,100791.02
2023-01-29T03:16:40.316Z,100792.04
2023-01-29T03:18:57.191Z,100795.64
2023-01-29T03:19:36.358Z,100797.39
2023-01-29T03:20:13.668Z,100792.56
2023-01-29T03:20:50.965Z,100792.08
2023-01-29T03:21:53.092Z,100796.97
2023-01-29T03:22:26.189Z,100789.00
2023-01-29T03:24:00.073Z,100788.13
2023-01-29T03:25:03.386Z,100783.92
2023-01-29T03:25:54.904Z,100784.04
2023-01-29T03:26:46.463Z,100779.85
2023-01-29T03:27:39.319Z,100782.82
2023-01-29T03:28:31.828Z,100783.83
2023-01-29T03:29:23.388Z,100781.40
2023-01-29T03:30:15.126Z,100776.70
2023-01-29T03:31:09.477Z,100779.81
2023-01-29T03:32:00.992Z,100773.09
2023-01-29T03:32:36.144Z,100776.60
2023-01-29T03:33:09.734Z,100780.61
2023-01-29T03:34:04.732Z,100771.09
2023-01-29T03:35:33.557Z,100773.38
2023-01-29T03:36:09.216Z,100770.95
2023-01-29T03:37:45.750Z,100771.31
2023-01-29T03:38:18.659Z,100766.80
2023-01-29T03:38:51.515Z,100765.41
2023-01-29T03:39:25.944Z,100776.51
2023-01-29T03:39:58.854Z,100769.40
2023-01-29T03:40:35.763Z,100763.66
2023-01-29T03:41:19.619Z,100769.40
2023-01-29T03:42:30.158Z,100769.21
2023-01-29T03:44:08.727Z,100759.50
2023-01-29T03:44:56.347Z,100763.48
2023-01-29T03:45:37.055Z,100763.69
2023-01-29T03:46:37.010Z,100757.50
2023-01-29T03:47:37.004Z,100752.49
2023-01-29T03:48:29.288Z,100754.95
2023-01-29T03:49:08.426Z,100755.98
2023-01-29T03:49:52.771Z,100755.66
2023-01-29T03:51:16.992Z,100748.23
2023-01-29T03:52:01.488Z,100747.52
2023-01-29T03:53:00.045Z,100761.38
2023-01-29T03:53:41.224Z,100760.27
2023-01-29T03:54:27.915Z,100761.63
2023-01-29T03:55:39.084Z,100759.36
2023-01-29T03:56:38.080Z,100756.39
2023-01-29T03:57:19.819Z,100769.01
2023-01-29T03:59:12.485Z,100766.41
2023-01-29T03:59:56.851Z,100760.55
2023-01-29T04:00:36.361Z,100770.80
2023-01-29T04:01:17.167Z,100764.93
2023-01-29T04:02:37.543Z,100758.04
2023-01-29T04:04:39.388Z,100757.58
2023-01-29T04:05:16.386Z,100756.91
2023-01-29T04:06:01.876Z,100756.56
2023-01-29T04:06:36.019Z,100752.05
2023-01-29T04:07:08.834Z,100753.77
2023-01-29T04:07:41.897Z,100752.55
2023-01-29T04:08:21.521Z,100749.08
2023-01-29T04:09:01.130Z,100751.52
2023-01-29T04:09:48.683Z,100753.41
2023-01-29T04:11:02.142Z,100749.25
2023-01-29T04:11:36.576Z,100746.09
2023-01-29T04:12:54.291Z,100745.90
2023-01-29T04:13:27.131Z,100741.38
2023-01-29T04:14:37.851Z,100741.49
2023-01-29T04:16:33.940Z,100737.05
2023-01-29T04:17:13.190Z,100735.70
2023-01-29T04:17:51.747Z,100736.42
2023-01-29T04:18:25.194Z,100730.52
2023-01-29T04:18:58.186Z,100735.05
2023-01-29T04:19:31.111Z,100736.45
2023-01-29T04:20:42.159Z,100732.96
2023-01-29T04:21:15.545Z,100724.64
2023-01-29T04:21:48.800Z,100722.04
2023-01-29T04:22:21.679Z,100731.39
2023-01-29T04:24:10.206Z,100726.20
2023-01-29T04:26:29.900Z,100727.05
2023-01-29T04:27:27.607Z,100726.92
2023-01-29T04:28:36.302Z,100721.58
2023-01-29T04:29:16.394Z,100724.71
2023-01-29T04:30:01.189Z,100723.48
2023-01-29T04:30:58.543Z,100719.85
2023-01-29T04:32:01.105Z,100720.90
2023-01-29T04:33:35.977Z,100716.77
2023-01-29T04:34:18.553Z,100719.17
2023-01-29T04:35:02.025Z,100719.68
2023-01-29T04:36:11.467Z,100722.43
2023-01-29T04:37:03.195Z,100714.27
2023-01-29T04:37:50.618Z,100708.14
2023-01-29T04:38:41.568Z,100709.34
2023-01-29T04:39:53.173Z,100706.69
2023-01-29T04:40:27.742Z,100708.72
2023-01-29T04:42:33.455Z,100702.20
2023-01-29T04:43:24.112Z,100700.48
2023-01-29T04:44:00.120Z,100699.16
2023-01-29T04:44:51.090Z,100699.16
2023-01-29T04:45:30.565Z,100702.30
2023-01-29T04:47:26.573Z,100691.88
2023-01-29T04:49:01.298Z,100692.55
2023-01-29T04:49:49.967Z,100692.93
2023-01-29T04:50:28.463Z,100690.82
2023-01-29T04:51:51.634Z,100693.70
2023-01-29T04:52:26.115Z,100689.01
2023-01-29T04:53:03.969Z,100693.50
2023-01-29T04:53:47.123Z,100686.91
2023-01-29T04:54:48.797Z,100691.23
2023-01-29T04:56:28.449Z,100691.70
2023-01-29T04:58:19.295Z,100684.52
2023-01-29T04:59:13.507Z,100688.70
2023-01-29T04:59:48.936Z,100693.73
2023-01-29T05:00:28.001Z,100695.10
2023-01-29T05:01:01.207Z,100691.64
2023-01-29T05:02:49.935Z,100687.67
2023-01-29T05:04:03.633Z,100690.28
2023-01-29T05:04:37.236Z,100689.23
2023-01-29T05:05:10.044Z,100695.44
2023-01-29T05:06:23.186Z,100690.40
2023-01-29T05:06:56.040Z,100704.41
2023-01-29T05:07:28.895Z,100694.70
2023-01-29T05:08:39.565Z,100691.90
2023-01-29T05:09:13.733Z,100685.48
2023-01-29T05:09:46.669Z,100680.49
2023-01-29T05:10:59.265Z,100677.80
2023-01-29T05:11:32.635Z,100689.45
2023-01-29T05:12:09.502Z,100685.33
2023-01-29T05:12:43.783Z,100687.41
2023-01-29T05:13:16.649Z,100681.88
2023-01-29T05:13:49.653Z,100684.66
2023-01-29T05:14:22.678Z,100689.68
2023-01-29T05:15:37.695Z,100691.80
2023-01-29T05:16:41.959Z,100688.33
2023-01-29T05:17:16.911Z,100697.45
2023-01-29T05:18:27.725Z,100696.01
2023-01-29T05:19:38.260Z,100696.00
2023-01-29T05:20:11.893Z,100692.88
2023-01-29T05:21:23.532Z,100688.73
2023-01-29T05:21:56.405Z,100696.19
2023-01-29T05:23:18.644Z,100692.31
2023-01-29T05:24:09.057Z,100689.72
2023-01-29T05:24:41.955Z,100690.95
2023-01-29T05:26:31.475Z,100691.63
2023-01-29T05:27:22.575Z,100683.11
2023-01-29T05:28:42.684Z,100686.16
2023-01-29T05:31:48.720Z,100682.78
2023-01-29T05:32:59.389Z,100687.82
2023-01-29T05:34:10.383Z,100681.08
2023-01-29T05:36:38.733Z,100682.95
2023-01-29T05:37:49.394Z,100687.50
2023-01-29T05:39:00.613Z,100680.27
2023-01-29T05:40:11.601Z,100685.83
2023-01-29T05:40:47.689Z,100694.67
2023-01-29T05:41:21.187Z,100688.27
2023-01-29T05:42:32.024Z,100682.17
2023-01-29T05:43:05.887Z,100685.96
2023-01-29T05:43:38.827Z,100680.92
2023-01-29T05:45:35.986Z,100690.11
2023-01-29T05:46:47.188Z,100687.80
2023-01-29T05:47:21.114Z,100692.83
2023-01-29T05:47:58.096Z,100689.92
2023-01-29T05:48:32.421Z,100690.14
2023-01-29T05:49:05.817Z,100687.92
2023-01-29T05:49:38.982Z,100692.45
2023-01-29T05:51:28.252Z,100680.50
2023-01-29T05:52:01.430Z,100678.94
2023-01-29T05:53:12.286Z,100682.23
2023-01-29T05:54:23.018Z,100688.24
2023-01-29T05:54:56.019Z,100681.46
2023-01-29T05:55:29.917Z,100672.27
2023-01-29T05:57:19.375Z,100662.35
2023-01-29T05:57:52.352Z,100659.58
2023-01-29T05:59:03.414Z,100655.76
2023-01-29T05:59:36.490Z,100651.95
2023-01-29T06:00:47.959Z,100653.56
2023-01-29T06:02:00.968Z,100647.52
2023-01-29T06:03:50.026Z,100645.48
2023-01-29T06:05:00.724Z,100659.87
2023-01-29T06:06:11.863Z,100660.20
2023-01-29T06:07:22.616Z,100663.45
2023-01-29T06:07:55.591Z,100666.90
2023-01-29T06:08:28.569Z,100660.32
2023-01-29T06:09:39.325Z,100661.70
2023-01-29T06:12:08.129Z,100658.27
2023-01-29T06:12:41.901Z,100648.75
2023-01-29T06:15:08.970Z,100646.57
2023-01-29T06:15:42.039Z,100647.79
2023-01-29T06:17:30.880Z,100654.39
2023-01-29T06:19:20.867Z,100643.27
2023-01-29T06:19:53.826Z,100647.27
2023-01-29T06:20:26.702Z,100654.73
2023-01-29T06:21:03.818Z,100654.74
2023-01-29T06:21:36.744Z,100663.58
2023-01-29T06:22:09.817Z,100660.12
2023-01-29T06:23:20.573Z,100657.65
2023-01-29T06:24:33.026Z,100661.80
2023-01-29T06:25:07.180Z,100662.52
2023-01-29T06:26:17.932Z,100658.23
2023-01-29T06:27:28.581Z,100657.73
2023-01-29T06:28:39.438Z,100671.79
2023-01-29T06:29:12.527Z,100662.41
2023-01-29T06:31:42.738Z,100659.71
2023-01-29T06:32:16.035Z,100660.39
2023-01-29T06:32:49.201Z,100663.52
2023-01-29T06:34:00.102Z,100660.17
2023-01-29T06:35:48.812Z,100663.16
2023-01-29T06:36:59.468Z,100669.23
2023-01-29T06:38:47.988Z,100667.69
2023-01-29T06:39:58.545Z,100660.08
2023-01-29T06:41:13.062Z,100665.80
2023-01-29T06:41:46.497Z,100666.11
2023-01-29T06:42:20.698Z,100670.93
2023-01-29T06:42:53.673Z,100657.58
2023-01-29T06:43:26.508Z,100655.49
2023-01-29T06:43:59.325Z,100663.47
2023-01-29T06:45:10.790Z,100672.30
2023-01-29T06:45:57.517Z,100663.80
2023-01-29T06:47:08.450Z,100658.61
2023-01-29T06:47:41.419Z,100676.13
2023-01-29T06:48:52.278Z,100669.58
2023-01-29T06:50:03.502Z,100661.77
2023-01-29T06:50:36.522Z,100667.02
2023-01-29T06:51:10.012Z,100666.33
2023-01-29T06:52:20.872Z,100668.75
2023-01-29T06:53:31.932Z,100669.46
2023-01-29T06:54:06.662Z,100677.43
2023-01-29T06:54:39.621Z,100677.59
2023-01-29T06:55:12.616Z,100670.11
2023-01-29T06:55:51.608Z,100666.81
2023-01-29T06:56:24.593Z,100666.63
2023-01-29T06:56:57.562Z,100667.84
2023-01-29T06:58:11.929Z,100673.91
2023-01-29T07:00:38.566Z,100675.36
2023-01-29T07:01:50.006Z,100680.59
2023-01-29T07:04:19.617Z,100668.27
2023-01-29T07:05:31.024Z,100671.22
2023-01-29T07:07:20.621Z,100664.96
2023-01-29T07:08:31.622Z,100665.11
2023-01-29T07:09:42.690Z,100671.86
2023-01-29T07:10:16.047Z,100664.91
2023-01-29T07:10:49.812Z,100657.27
2023-01-29T07:12:00.530Z,100659.77
2023-01-29T07:12:33.493Z,100658.92
2023-01-29T07:13:06.463Z,100654.63
2023-01-29T07:13:39.441Z,100649.61
2023-01-29T07:14:50.199Z,100655.00
2023-01-29T07:16:39.745Z,100663.86
2023-01-29T07:17:12.745Z,100660.23
2023-01-29T07:17:56.263Z,100656.95
2023-01-29T07:18:29.857Z,100655.38
2023-01-29T07:19:02.847Z,100656.39
2023-01-29T07:19:35.910Z,100654.83
2023-01-29T07:20:09.628Z,100655.00
2023-01-29T07:21:20.760Z,100665.40
2023-01-29T07:22:31.922Z,100662.99
2023-01-29T07:24:58.773Z,100669.33
2023-01-29T07:25:31.840Z,100665.20
2023-01-29T07:28:01.313Z,100675.80
2023-01-29T07:28:38.265Z,100674.41
2023-01-29T07:29:11.386Z,100668.19
2023-01-29T07:31:37.809Z,100670.80
2023-01-29T07:32:11.196Z,100665.09
2023-01-29T07:34:37.331Z,100659.41
2023-01-29T07:35:10.708Z,100659.94
2023-01-29T07:40:10.645Z,100648.64
2023-01-29T07:41:21.501Z,100649.73
2023-01-29T07:42:32.155Z,100641.42
2023-01-29T07:43:06.460Z,100643.17
2023-01-29T07:43:39.323Z,100634.67
2023-01-29T07:44:49.913Z,100625.14
2023-01-29T07:47:19.094Z,100624.65
2023-01-29T07:47:53.993Z,100625.53
2023-01-29T07:48:26.977Z,100627.11
2023-01-29T07:49:37.732Z,100626.79
2023-01-29T07:50:56.295Z,100627.86
2023-01-29T07:52:07.136Z,100619.58
2023-01-29T07:52:40.109Z,100619.94
2023-01-29T07:53:16.257Z,100622.91
2023-01-29T07:54:27.013Z,100612.52
2023-01-29T07:55:00.021Z,100613.22
2023-01-29T07:56:48.736Z,100603.70
2023-01-29T07:58:01.212Z,100602.85
2023-01-29T07:59:14.108Z,100600.05
2023-01-29T07:59:47.131Z,100599.89
2023-01-29T08:00:21.119Z,100598.50
2023-01-29T08:01:32.004Z,100601.46
2023-01-29T08:02:42.838Z,100593.89
2023-01-29T08:03:17.669Z,100594.23
2023-01-29T08:03:51.508Z,100600.68
2023-01-29T08:05:40.414Z,100597.27
2023-01-29T08:06:51.157Z,100608.05
2023-01-29T08:07:24.030Z,100608.23
2023-01-29T08:08:06.192Z,100605.98
2023-01-29T08:08:39.806Z,100600.75
2023-01-29T08:09:12.779Z,100602.30
2023-01-29T08:09:48.032Z,100602.14
2023-01-29T08:10:21.136Z,100605.27
2023-01-29T08:10:54.159Z,100600.25
2023-01-29T08:11:27.129Z,100603.90
2023-01-29T08:12:37.885Z,100599.75
2023-01-29T08:13:10.963Z,100599.05
2023-01-29T08:14:59.914Z,100601.38
2023-01-29T08:16:10.717Z,100596.19
2023-01-29T08:17:59.320Z,100594.48
2023-01-29T08:19:10.295Z,100590.48
2023-01-29T08:21:01.346Z,100592.59
2023-01-29T08:22:50.034Z,100593.63
2023-01-29T08:23:23.109Z,100586.00
2023-01-29T08:23:56.201Z,100583.91
2023-01-29T08:25:21.059Z,100590.70
2023-01-29T08:25:54.120Z,100587.05
2023-01-29T08:26:27.541Z,100591.38
2023-01-29T08:27:38.291Z,100590.73
2023-01-29T08:28:49.873Z,100587.96
2023-01-29T08:30:00.945Z,100583.80
2023-01-29T08:30:34.289Z,100585.38
2023-01-29T08:31:16.713Z,100581.20
2023-01-29T08:31:49.814Z,100581.38
2023-01-29T08:32:22.862Z,100582.95
2023-01-29T08:33:39.195Z,100580.34
2023-01-29T08:35:28.309Z,100582.23
2023-01-29T08:37:17.060Z,100585.70
2023-01-29T08:37:54.846Z,100578.41
2023-01-29T08:38:28.230Z,100576.85
2023-01-29T08:39:01.208Z,100572.17
2023-01-29T08:39:34.657Z,100573.05
2023-01-29T08:40:09.668Z,100575.50
2023-01-29T08:41:20.665Z,100573.79
2023-01-29T08:42:32.940Z,100571.04
2023-01-29T08:43:08.644Z,100570.87
2023-01-29T08:44:20.010Z,100566.69
2023-01-29T08:44:52.961Z,100565.65
2023-01-29T08:46:06.953Z,100558.53
2023-01-29T08:46:41.085Z,100559.23
2023-01-29T08:48:30.550Z,100561.69
2023-01-29T08:50:59.131Z,100557.70
2023-01-29T08:52:09.900Z,100561.02
2023-01-29T08:52:43.577Z,100565.72
2023-01-29T08:53:16.652Z,100556.52
2023-01-29T08:54:27.411Z,100565.38
2023-01-29T08:55:00.390Z,100560.00
2023-01-29T08:55:37.600Z,100562.60
2023-01-29T08:56:48.621Z,100553.75
2023-01-29T08:57:59.483Z,100551.83
2023-01-29T08:58:32.455Z,100555.83
2023-01-29T08:59:43.318Z,100560.17
2023-01-29T09:00:17.163Z,100562.61
2023-01-29T09:01:28.195Z,100558.97
2023-01-29T09:02:01.151Z,100557.23
2023-01-29T09:03:50.719Z,100555.68
2023-01-29T09:06:19.298Z,100560.03
2023-01-29T09:09:19.221Z,100564.56
2023-01-29T09:09:52.195Z,100560.22
2023-01-29T09:11:41.246Z,100565.10
2023-01-29T09:12:52.135Z,100568.41
2023-01-29T09:14:03.125Z,100573.44
2023-01-29T09:14:36.144Z,100571.36
2023-01-29T09:15:09.939Z,100567.20
2023-01-29T09:15:42.921Z,100571.54
2023-01-29T09:16:15.929Z,100570.32
2023-01-29T09:16:48.983Z,100573.27
2023-01-29T09:18:04.129Z,100570.50
2023-01-29T09:18:37.102Z,100567.73
2023-01-29T09:19:10.048Z,100566.86
2023-01-29T09:20:20.937Z,100572.77
2023-01-29T09:22:11.818Z,100573.98
2023-01-29T09:22:45.783Z,100576.25
2023-01-29T09:23:18.680Z,100571.04
2023-01-29T09:23:51.565Z,100567.04
2023-01-29T09:26:21.002Z,100557.30
2023-01-29T09:27:31.943Z,100556.24
2023-01-29T09:28:06.419Z,100567.73
2023-01-29T09:28:39.311Z,100566.00
2023-01-29T09:29:50.176Z,100563.02
2023-01-29T09:31:02.846Z,100569.45
2023-01-29T09:31:36.073Z,100568.05
2023-01-29T09:32:09.132Z,100566.48
2023-01-29T09:32:57.260Z,100562.48
2023-01-29T09:34:09.143Z,100574.83
2023-01-29T09:34:42.218Z,100585.96
2023-01-29T09:35:52.984Z,100579.52
2023-01-29T09:36:25.949Z,100584.23
2023-01-29T09:36:58.864Z,100574.66
2023-01-29T09:38:10.381Z,100578.66
2023-01-29T09:39:21.162Z,100567.88
2023-01-29T09:39:54.148Z,100570.13
2023-01-29T09:40:45.943Z,100566.65
2023-01-29T09:41:21.784Z,100562.82
2023-01-29T09:42:07.866Z,100563.86
2023-01-29T09:42:46.405Z,100561.25
2023-01-29T09:43:40.074Z,100561.42
2023-01-29T09:44:37.779Z,100562.28
2023-01-29T09:45:12.484Z,100557.05
2023-01-29T09:45:53.046Z,100563.85
2023-01-29T09:46:33.695Z,100555.67
2023-01-29T09:47:07.897Z,100562.46
2023-01-29T09:47:40.873Z,100554.64
2023-01-29T09:48:13.781Z,100557.43
2023-01-29T09:48:46.714Z,100553.42
2023-01-29T09:49:23.074Z,100556.92
2023-01-29T09:49:59.216Z,100550.81
2023-01-29T09:50:47.648Z,100547.52
2023-01-29T09:51:30.573Z,100547.17
2023-01-29T09:52:13.671Z,100549.80
2023-01-29T09:52:54.072Z,100558.84
2023-01-29T09:54:08.971Z,100554.48
2023-01-29T09:55:01.706Z,100549.64
2023-01-29T09:55:38.312Z,100558.17
2023-01-29T09:56:21.269Z,100553.28
2023-01-29T09:56:56.495Z,100551.38
2023-01-29T09:59:19.760Z,100567.73
2023-01-29T10:00:38.205Z,100560.42
2023-01-29T10:01:29.370Z,100563.20
2023-01-29T10:02:24.544Z,100559.04
2023-01-29T10:03:00.221Z,100550.86
2023-01-29T10:04:44.096Z,100548.77
2023-01-29T10:05:26.347Z,100548.08
2023-01-29T10:06:43.964Z,100557.12
2023-01-29T10:07:27.077Z,100544.42
2023-01-29T10:08:25.483Z,100559.23
2023-01-29T10:09:13.443Z,100541.64
2023-01-29T10:10:13.997Z,100539.22
2023-01-29T10:11:08.957Z,100535.73
2023-01-29T10:11:58.744Z,100537.29
2023-01-29T10:12:53.199Z,100537.98
2023-01-29T10:14:18.419Z,100533.45
2023-01-29T10:14:57.749Z,100533.98
2023-01-29T10:15:47.839Z,100541.46
2023-01-29T10:16:28.364Z,100528.59
2023-01-29T10:17:26.026Z,100526.30
2023-01-29T10:18:15.582Z,100528.40
2023-01-29T10:18:54.655Z,100524.92
2023-01-29T10:20:40.373Z,100527.00
2023-01-29T10:22:26.253Z,100523.19
2023-01-29T10:24:04.669Z,100524.74
2023-01-29T10:25:18.689Z,100518.11
2023-01-29T10:26:29.935Z,100506.27
2023-01-29T10:27:41.883Z,100507.31
2023-01-29T10:28:37.183Z,100505.21
2023-01-29T10:29:12.835Z,100498.06
2023-01-29T10:29:47.551Z,100500.85
2023-01-29T10:30:22.351Z,100504.15
2023-01-29T10:30:58.776Z,100496.83
2023-01-29T10:32:59.344Z,100499.42
2023-01-29T10:34:42.925Z,100498.73
2023-01-29T10:35:24.086Z,100503.78
2023-01-29T10:36:00.635Z,100507.80
2023-01-29T10:36:42.972Z,100500.15
2023-01-29T10:38:29.432Z,100500.14
2023-01-29T10:39:02.405Z,100501.00
2023-01-29T10:40:21.918Z,100499.95
2023-01-29T10:42:23.315Z,100490.40
2023-01-29T10:43:04.601Z,100495.12
2023-01-29T10:43:46.670Z,100490.43
2023-01-29T10:44:42.081Z,100494.09
2023-01-29T10:45:37.677Z,100490.27
2023-01-29T11:21:27.379Z,100434.01
2023-01-29T11:22:01.343Z,100439.23
2023-01-29T11:22:34.893Z,100442.18
2023-01-29T11:23:28.389Z,100435.05
2023-01-29T11:25:16.946Z,100442.70
2023-01-29T11:25:53.017Z,100440.27
2023-01-29T11:28:02.951Z,100434.70
2023-01-29T11:28:39.671Z,100434.89
2023-01-29T11:29:30.789Z,100431.41
2023-01-29T11:30:42.109Z,100420.97
2023-01-29T11:31:17.973Z,100426.71
2023-01-29T11:31:50.977Z,100419.23
2023-01-29T11:33:31.029Z,100420.79
2023-01-29T11:35:42.203Z,100421.33
2023-01-29T11:36:32.933Z,100418.03
2023-01-29T11:37:15.839Z,100416.11
2023-01-29T11:37:48.778Z,100418.55
2023-01-29T11:38:30.527Z,100413.67
2023-01-29T11:39:21.571Z,100406.56
2023-01-29T11:40:37.739Z,100409.51
2023-01-29T11:41:18.953Z,100404.11
2023-01-29T11:42:40.872Z,100406.38
2023-01-29T11:43:18.359Z,100401.33
2023-01-29T11:43:51.315Z,100394.73
2023-01-29T11:44:36.635Z,100395.08
2023-01-29T11:45:30.113Z,100391.42
2023-01-29T11:48:14.495Z,100391.42
2023-01-29T11:48:50.392Z,100389.88
2023-01-29T11:49:33.285Z,100393.52
2023-01-29T11:51:27.473Z,100389.52
2023-01-29T11:52:02.685Z,100391.24
2023-01-29T11:52:37.822Z,100389.51
2023-01-29T11:53:29.730Z,100389.16
2023-01-29T11:54:02.955Z,100400.45